Time;durP1;ratioP1;P1;durP2;ratioP2;P2;SDS_P1;SDS_P2;PMS_P1;PMS_P2;Temp;Humidity;BMP_temperature;BMP_pressure;BME280_temperature;BME280_humidity;BME280_pressure;Samples;Min_cycle;Max_cycle;Signal;HPM_P1;HPM_P2
2022/12/10 00:02:03;;;;;;;57.10;9.65;;;17.20;99.90;;;;;;4863401;29;20123;-92
2022/12/10 00:04:29;;;;;;;71.47;13.10;;;17.10;99.90;;;;;;4847933;29;20073;-90
2022/12/10 00:06:56;;;;;;;72.13;11.18;;;17.10;99.90;;;;;;4848233;29;20033;-88
2022/12/10 00:09:23;;;;;;;68.45;11.52;;;17.10;99.90;;;;;;4847850;29;20033;-90
2022/12/10 00:11:52;;;;;;;77.40;10.90;;;17.10;99.90;;;;;;4847960;29;20507;-91
2022/12/10 00:14:19;;;;;;;66.55;10.20;;;17.10;99.90;;;;;;4847952;29;20048;-90
2022/12/10 00:16:46;;;;;;;72.55;9.77;;;17.00;99.90;;;;;;4863111;29;20399;-91
2022/12/10 00:19:13;;;;;;;81.15;11.50;;;17.00;99.90;;;;;;4848102;29;20554;-89
2022/12/10 00:21:39;;;;;;;73.28;10.20;;;17.00;99.90;;;;;;4847967;29;20510;-91
2022/12/10 00:24:06;;;;;;;78.03;10.27;;;17.00;99.90;;;;;;4847955;29;20029;-90
2022/12/10 00:26:36;;;;;;;76.45;10.75;;;17.00;99.90;;;;;;4850990;29;20029;-92
2022/12/10 00:29:13;;;;;;;61.28;11.43;;;17.00;99.90;;;;;;4851201;29;20116;-93
2022/12/10 00:31:40;;;;;;;77.90;12.18;;;16.90;99.90;;;;;;4850897;29;20040;-91
2022/12/10 00:34:10;;;;;;;63.67;11.45;;;16.90;99.90;;;;;;4851042;29;20025;-91
2022/12/10 00:36:55;;;;;;;61.50;11.15;;;16.90;99.90;;;;;;4878606;29;20120;-92
2022/12/10 00:40:32;;;;;;;72.80;11.15;;;16.90;99.90;;;;;;4881237;29;20048;-93
2022/12/10 00:43:15;;;;;;;78.53;12.38;;;16.80;99.90;;;;;;4819813;29;20407;-93
2022/12/10 00:46:04;;;;;;;68.97;10.30;;;16.80;99.90;;;;;;4821674;29;20050;-95
2022/12/10 00:51:57;;;;;;;70.75;11.73;;;16.90;99.90;;;;;;4900345;23;20060;-93
2022/12/10 00:54:30;;;;;;;77.97;13.05;;;16.90;99.90;;;;;;4920933;23;20032;-94
2022/12/10 00:58:02;;;;;;;87.68;11.98;;;16.90;99.90;;;;;;4959417;24;20065;-93
2022/12/10 01:00:48;;;;;;;65.90;10.55;;;16.90;99.90;;;;;;4818880;29;20054;-92
2022/12/10 01:03:23;;;;;;;75.20;11.13;;;16.90;99.90;;;;;;4836085;29;20038;-93
2022/12/10 01:06:48;;;;;;;61.20;10.00;;;16.80;99.90;;;;;;4781341;30;20071;-93
2022/12/10 01:09:37;;;;;;;80.45;12.18;;;16.80;99.90;;;;;;4795995;29;20094;-92
2022/12/10 01:15:40;;;;;;;64.70;10.55;;;16.90;99.90;;;;;;4855942;29;20074;-93
2022/12/10 01:18:16;;;;;;;81.28;12.07;;;16.80;99.90;;;;;;4824958;29;20046;-94
2022/12/10 01:21:39;;;;;;;83.90;11.30;;;16.90;99.90;;;;;;4841064;29;20400;-93
2022/12/10 01:24:44;;;;;;;65.78;10.65;;;16.80;99.90;;;;;;4841191;29;20063;-92
2022/12/10 01:27:13;;;;;;;77.07;10.73;;;16.80;99.90;;;;;;4822138;29;20429;-93
2022/12/10 01:30:00;;;;;;;58.83;9.30;;;16.80;99.90;;;;;;4822533;29;20042;-92
2022/12/10 01:39:51;;;;;;;69.20;9.85;;;16.80;99.90;;;;;;4824223;29;20054;-93
2022/12/10 01:42:54;;;;;;;64.93;10.18;;;16.70;99.90;;;;;;4773667;30;20044;-93
2022/12/10 01:45:49;;;;;;;62.60;9.95;;;16.80;99.90;;;;;;4784031;29;20059;-95
2022/12/10 01:48:38;;;;;;;73.03;10.65;;;16.80;99.90;;;;;;4783106;30;20063;-94
2022/12/10 01:52:18;;;;;;;67.20;11.52;;;16.70;99.90;;;;;;4786851;30;20052;-93
2022/12/10 01:55:54;;;;;;;;;;;;;;;;;;;;;
2022/12/10 01:59:25;;;;;;;;;;;;;;;;;;;;;
2022/12/10 02:07:10;;;;;;;;;;;;;;;;;;;;;
2022/12/10 02:13:31;;;;;;;;;;;;;;;;;;;;;
2022/12/10 02:17:01;;;;;;;76.93;10.57;;;16.60;99.90;;;;;;4895894;23;20087;-93
2022/12/10 02:20:21;;;;;;;;;;;;;;;;;;;;;
2022/12/10 02:24:04;;;;;;;60.45;9.77;;;16.60;99.90;;;;;;4882089;29;20040;-95
2022/12/10 02:27:49;;;;;;;73.55;11.63;;;16.60;99.90;;;;;;4780500;30;20043;-94
2022/12/10 02:48:25;;;;;;;57.80;8.82;;;16.60;99.90;;;;;;4936856;23;20080;-92
2022/12/10 02:50:56;;;;;;;66.33;10.53;;;16.60;99.90;;;;;;4895989;24;20061;-95
2022/12/10 03:10:30;;;;;;;54.00;7.72;;;16.60;99.90;;;;;;4987189;23;20053;-95
2022/12/10 03:20:00;;;;;;;62.38;9.32;;;16.60;99.90;;;;;;5618997;23;20045;-94
2022/12/10 03:40:51;;;;;;;78.95;9.05;;;16.50;99.90;;;;;;4966994;23;20052;-92
2022/12/10 09:47:58;;;;;;;49.72;8.35;;;18.40;99.90;;;;;;5486612;23;20151;-92
2022/12/10 09:50:53;;;;;;;51.75;9.20;;;18.40;99.90;;;;;;4872577;29;20033;-93
2022/12/10 09:53:22;;;;;;;50.67;8.82;;;18.40;99.90;;;;;;4880815;29;20516;-93
2022/12/10 09:55:50;;;;;;;47.25;8.68;;;18.40;99.90;;;;;;4874288;29;20402;-92
2022/12/10 09:58:24;;;;;;;43.95;9.32;;;18.40;99.90;;;;;;4887636;29;20056;-93
2022/12/10 10:01:04;;;;;;;;;;;18.50;99.90;;;;;;4854280;29;20047;-94
2022/12/10 10:03:40;;;;;;;40.80;9.55;;;18.50;99.90;;;;;;4855806;29;20377;-94
2022/12/10 10:06:13;;;;;;;43.75;8.80;;;18.60;99.90;;;;;;4858041;29;20497;-95
2022/12/10 10:08:51;;;;;;;53.90;9.65;;;18.50;99.90;;;;;;5273766;24;20057;-92
2022/12/10 10:11:25;;;;;;;47.35;8.85;;;18.50;99.90;;;;;;4852966;29;20037;-93
2022/12/10 10:13:57;;;;;;;51.08;8.70;;;18.50;99.90;;;;;;4836221;29;20037;-92
2022/12/10 10:16:53;;;;;;;47.80;10.05;;;18.40;99.90;;;;;;4852106;29;20030;-92
2022/12/10 10:19:28;;;;;;;53.92;10.25;;;18.50;99.90;;;;;;4836595;29;20048;-91
2022/12/10 10:21:54;;;;;;;48.25;8.52;;;18.50;99.90;;;;;;4834729;29;20036;-89
2022/12/10 10:24:33;;;;;;;48.35;9.38;;;18.40;99.90;;;;;;4853089;29;20037;-93
2022/12/10 10:27:13;;;;;;;62.20;9.63;;;18.40;99.90;;;;;;4838586;29;20068;-94
2022/12/10 10:29:40;;;;;;;51.97;11.25;;;18.40;99.90;;;;;;4848939;29;20029;-93
2022/12/10 10:32:23;;;;;;;47.72;9.27;;;18.40;99.90;;;;;;4832346;29;20029;-91
2022/12/10 10:34:57;;;;;;;54.75;10.45;;;18.40;99.90;;;;;;4853060;29;20075;-92
2022/12/10 10:37:35;;;;;;;49.53;9.93;;;18.40;99.90;;;;;;4839342;29;20542;-92
2022/12/10 10:40:02;;;;;;;64.40;10.65;;;18.40;99.90;;;;;;4853254;29;20049;-91
2022/12/10 10:42:41;;;;;;;48.33;8.68;;;18.40;99.90;;;;;;4839910;29;20022;-92
2022/12/10 10:45:34;;;;;;;59.55;8.90;;;18.40;99.90;;;;;;4852205;29;20041;-92
2022/12/10 10:48:20;;;;;;;64.90;9.05;;;18.50;99.90;;;;;;4844999;29;20034;-91
2022/12/10 10:51:05;;;;;;;54.30;9.82;;;18.50;99.90;;;;;;4839797;29;20066;-92
2022/12/10 10:53:46;;;;;;;44.70;8.20;;;18.50;99.90;;;;;;4847473;29;20030;-91
2022/12/10 10:56:16;;;;;;;49.00;9.25;;;18.50;99.90;;;;;;4847008;29;20033;-93
2022/12/10 10:59:04;;;;;;;37.63;9.20;;;18.50;99.90;;;;;;4846149;29;20029;-93
2022/12/10 11:01:43;;;;;;;51.10;9.65;;;18.50;99.90;;;;;;4847170;29;20049;-93
2022/12/10 11:04:10;;;;;;;52.88;9.63;;;18.40;99.90;;;;;;4853375;29;20100;-92
2022/12/10 11:06:37;;;;;;;46.10;8.52;;;18.50;99.90;;;;;;4838680;29;20030;-93
2022/12/10 11:09:05;;;;;;;53.17;11.15;;;18.40;99.90;;;;;;4856347;29;20605;-92
2022/12/10 11:11:35;;;;;;;59.15;12.55;;;18.40;99.90;;;;;;4854459;29;20120;-93
2022/12/10 11:14:23;;;;;;;77.90;14.90;;;18.50;99.90;;;;;;4869027;29;20550;-93
2022/12/10 11:16:50;;;;;;;43.10;9.52;;;18.50;99.90;;;;;;4850456;29;20033;-91
2022/12/10 11:19:21;;;;;;;42.97;8.07;;;18.50;99.90;;;;;;4868584;29;20045;-94
2022/12/10 11:21:49;;;;;;;54.05;9.20;;;18.50;99.90;;;;;;4849474;29;20033;-94
2022/12/10 11:24:20;;;;;;;51.83;7.55;;;18.50;99.90;;;;;;4853566;29;20109;-91
2022/12/10 11:27:05;;;;;;;52.13;8.43;;;18.50;99.90;;;;;;4846945;29;20043;-92
2022/12/10 11:29:57;;;;;;;55.13;8.73;;;18.50;99.90;;;;;;4851876;29;20040;-91
2022/12/10 11:32:36;;;;;;;53.05;9.30;;;18.40;99.90;;;;;;4845913;29;20061;-92
2022/12/10 11:35:11;;;;;;;44.20;9.77;;;18.40;99.90;;;;;;4845488;29;20488;-94
2022/12/10 11:38:15;;;;;;;69.93;14.35;;;18.50;99.90;;;;;;4860817;29;20041;-93
2022/12/10 11:41:19;;;;;;;58.00;11.95;;;18.50;99.90;;;;;;4845620;29;20057;-94
2022/12/10 11:43:50;;;;;;;52.95;10.13;;;18.60;99.90;;;;;;4860611;29;20069;-94
2022/12/10 11:46:36;;;;;;;57.95;10.82;;;18.60;99.90;;;;;;4860267;29;20483;-93
2022/12/10 11:49:25;;;;;;;74.55;13.82;;;18.70;99.90;;;;;;4845237;29;20033;-92
2022/12/10 11:52:16;;;;;;;52.92;10.55;;;18.60;99.90;;;;;;4860997;29;20033;-93
2022/12/10 11:55:12;;;;;;;64.85;11.85;;;18.70;99.90;;;;;;4845451;29;20041;-93
2022/12/10 11:57:50;;;;;;;59.60;10.80;;;18.70;99.90;;;;;;4860478;29;20038;-92
2022/12/10 12:00:19;;;;;;;44.90;10.48;;;18.80;99.90;;;;;;4860219;29;20050;-93
2022/12/10 12:02:52;;;;;;;67.28;13.65;;;18.80;99.90;;;;;;4845024;29;20029;-94
2022/12/10 12:05:34;;;;;;;52.92;13.38;;;18.80;99.90;;;;;;4860572;29;20033;-93
2022/12/10 12:08:22;;;;;;;48.17;10.73;;;18.70;99.90;;;;;;4844817;29;20033;-94
2022/12/10 12:11:27;;;;;;;54.67;11.00;;;18.70;99.90;;;;;;4845737;29;20377;-93
2022/12/10 12:14:29;;;;;;;59.50;11.63;;;18.60;99.90;;;;;;4844949;29;20034;-92
2022/12/10 12:17:34;;;;;;;64.30;12.02;;;18.70;99.90;;;;;;4828242;29;20042;-92
2022/12/10 12:20:12;;;;;;;62.53;11.10;;;18.70;99.90;;;;;;4845634;29;20046;-92
2022/12/10 12:22:44;;;;;;;62.08;12.68;;;18.70;99.90;;;;;;4833891;29;20037;-94
2022/12/10 12:25:26;;;;;;;65.70;12.35;;;18.60;99.90;;;;;;4848428;29;20033;-93
2022/12/10 12:28:24;;;;;;;62.78;12.27;;;18.60;99.90;;;;;;4834490;29;20105;-94
2022/12/10 12:31:20;;;;;;;72.72;11.23;;;18.50;99.90;;;;;;4836260;29;20034;-95
2022/12/10 12:34:02;;;;;;;49.60;10.05;;;18.50;99.90;;;;;;4870095;24;20053;-94
2022/12/10 12:36:58;;;;;;;54.17;9.45;;;18.50;99.90;;;;;;4868552;29;20394;-95
2022/12/10 12:39:43;;;;;;;56.88;8.55;;;18.60;99.90;;;;;;4856215;29;20487;-95
2022/12/10 12:42:41;;;;;;;37.80;8.88;;;18.60;99.90;;;;;;4834070;29;20113;-94
2022/12/10 12:56:29;;;;;;;61.22;15.10;;;18.80;99.90;;;;;;4842658;29;20038;-95
2022/12/10 13:02:49;;;;;;;46.33;12.32;;;19.00;99.90;;;;;;5581765;23;20106;-95
2022/12/10 13:05:36;;;;;;;52.80;13.50;;;19.00;99.90;;;;;;4877437;29;20119;-94
2022/12/10 13:08:21;;;;;;;57.67;12.27;;;19.00;99.90;;;;;;4890559;29;20040;-94
2022/12/10 13:17:14;;;;;;;50.53;11.88;;;18.90;99.90;;;;;;4910127;23;20485;-93
2022/12/10 13:19:42;;;;;;;43.10;10.88;;;19.10;99.90;;;;;;4859386;29;20108;-92
2022/12/10 13:22:41;;;;;;;41.80;11.15;;;19.10;99.90;;;;;;4850648;29;20029;-92
2022/12/10 13:25:18;;;;;;;48.65;11.00;;;19.10;99.90;;;;;;4831928;29;20061;-92
2022/12/10 13:27:57;;;;;;;51.15;11.02;;;19.10;99.90;;;;;;4831902;29;20487;-92
2022/12/10 13:30:35;;;;;;;38.65;10.77;;;19.00;99.90;;;;;;4831950;29;20041;-91
2022/12/10 13:33:24;;;;;;;50.72;10.77;;;18.90;99.90;;;;;;4831335;29;20101;-92
2022/12/10 13:35:59;;;;;;;55.28;10.43;;;18.80;99.90;;;;;;4833470;29;20117;-94
2022/12/10 13:38:29;;;;;;;45.50;10.75;;;18.70;99.90;;;;;;4831531;29;20033;-90
2022/12/10 13:46:58;;;;;;;51.22;11.63;;;18.60;99.90;;;;;;4849136;29;20037;-92
2022/12/10 13:49:28;;;;;;;48.45;10.23;;;18.60;99.90;;;;;;4832263;29;20045;-93
2022/12/10 13:52:06;;;;;;;52.75;10.80;;;18.50;99.90;;;;;;4831597;29;20052;-93
2022/12/10 13:54:54;;;;;;;45.97;10.05;;;18.50;99.90;;;;;;4832276;29;20045;-91
2022/12/10 13:57:46;;;;;;;58.13;12.05;;;18.40;99.90;;;;;;4846716;29;20038;-91
2022/12/10 14:00:25;;;;;;;59.17;11.15;;;18.40;99.90;;;;;;4831183;29;20049;-92
2022/12/10 14:03:09;;;;;;;65.22;13.52;;;18.40;99.90;;;;;;4831408;29;20030;-92
2022/12/10 14:06:01;;;;;;;54.47;12.13;;;18.40;99.90;;;;;;4831186;29;20042;-92
2022/12/10 14:08:30;;;;;;;63.83;11.90;;;18.30;99.90;;;;;;4831458;29;20033;-92
2022/12/10 14:11:02;;;;;;;45.78;10.43;;;18.30;99.90;;;;;;4831091;29;20026;-92
2022/12/10 14:13:43;;;;;;;60.05;12.90;;;18.20;99.90;;;;;;4831522;29;20503;-92
2022/12/10 14:16:14;;;;;;;44.55;11.40;;;18.20;99.90;;;;;;4830669;29;20113;-92
2022/12/10 14:18:51;;;;;;;51.50;13.57;;;18.10;99.90;;;;;;4831369;29;20037;-93
2022/12/10 14:21:19;;;;;;;49.80;14.02;;;18.10;99.90;;;;;;4830776;29;20448;-92
2022/12/10 14:23:48;;;;;;;57.60;12.70;;;18.00;99.90;;;;;;4830927;29;20064;-92
2022/12/10 14:26:22;;;;;;;54.28;13.38;;;18.00;99.90;;;;;;4831064;29;20061;-90
2022/12/10 14:28:55;;;;;;;53.80;11.32;;;18.00;99.90;;;;;;4831130;29;20128;-91
2022/12/10 14:31:38;;;;;;;50.63;11.73;;;17.90;99.90;;;;;;4831035;29;20148;-90
2022/12/10 14:34:08;;;;;;;52.22;14.32;;;17.90;99.90;;;;;;4830748;29;20086;-91
2022/12/10 14:36:39;;;;;;;55.00;11.68;;;17.90;99.90;;;;;;4831391;29;20062;-92
2022/12/10 14:39:29;;;;;;;56.20;13.05;;;17.90;99.90;;;;;;4830782;29;20034;-92
2022/12/10 14:41:58;;;;;;;48.65;11.15;;;17.90;99.90;;;;;;4830439;29;20049;-90
2022/12/10 14:44:30;;;;;;;53.50;11.75;;;17.90;99.90;;;;;;4829952;29;20033;-93
2022/12/10 14:47:19;;;;;;;50.70;12.93;;;17.90;99.90;;;;;;4830594;29;20049;-92
2022/12/10 14:49:49;;;;;;;50.50;11.43;;;17.90;99.90;;;;;;4830510;29;20049;-91
2022/12/10 14:52:32;;;;;;;47.80;10.98;;;17.90;99.90;;;;;;4830809;29;20038;-90
2022/12/10 14:54:59;;;;;;;42.33;10.65;;;17.90;99.90;;;;;;4830622;29;20044;-92
2022/12/10 14:57:30;;;;;;;46.25;10.43;;;17.90;99.90;;;;;;4830646;29;20117;-91
2022/12/10 15:00:26;;;;;;;40.40;9.65;;;17.80;99.90;;;;;;4830528;29;20042;-91
2022/12/10 15:03:06;;;;;;;26.23;7.95;;;17.90;99.90;;;;;;4805579;29;20051;-92
2022/12/10 15:05:36;;;;;;;42.55;11.95;;;17.80;99.90;;;;;;4776913;29;20122;-93
2022/12/10 15:08:17;;;;;;;41.67;9.77;;;17.80;99.90;;;;;;4776605;29;20449;-94
2022/12/10 15:10:50;;;;;;;48.28;10.27;;;17.80;99.90;;;;;;4775464;29;20055;-92
2022/12/10 15:13:30;;;;;;;51.25;10.80;;;17.80;99.90;;;;;;4791782;29;20039;-93
2022/12/10 15:15:57;;;;;;;42.33;9.68;;;17.80;99.90;;;;;;4805463;29;20058;-92
2022/12/10 15:18:34;;;;;;;34.40;9.05;;;17.90;99.90;;;;;;4775281;29;20110;-92
2022/12/10 15:21:23;;;;;;;40.10;10.75;;;17.90;99.90;;;;;;4791484;29;20055;-93
2022/12/10 15:24:07;;;;;;;50.58;10.88;;;17.90;99.90;;;;;;4794307;29;20031;-94
2022/12/10 15:26:34;;;;;;;56.15;12.68;;;17.90;99.90;;;;;;4790492;29;20133;-93
2022/12/10 15:29:34;;;;;;;56.22;12.70;;;17.80;99.90;;;;;;4775327;29;20050;-91
2022/12/10 15:32:14;;;;;;;41.60;11.23;;;17.90;99.90;;;;;;4790272;29;20428;-91
2022/12/10 15:34:52;;;;;;;48.53;11.07;;;17.80;99.90;;;;;;4790340;29;20386;-92
2022/12/10 15:40:50;;;;;;;49.20;9.93;;;17.80;99.90;;;;;;4923291;23;20060;-88
2022/12/10 15:43:22;;;;;;;46.35;10.63;;;17.80;99.90;;;;;;4879033;29;20181;-90
2022/12/10 15:45:50;;;;;;;45.10;10.85;;;17.90;99.90;;;;;;4878882;29;20075;-91
2022/12/10 15:48:17;;;;;;;47.55;9.80;;;17.80;99.90;;;;;;4863387;29;20025;-92
2022/12/10 15:50:45;;;;;;;32.45;9.57;;;17.90;99.90;;;;;;4879368;29;20113;-91
2022/12/10 15:53:24;;;;;;;42.30;9.73;;;17.80;99.90;;;;;;4863532;29;20029;-92
2022/12/10 15:55:51;;;;;;;38.03;9.98;;;17.90;99.90;;;;;;4865602;29;20104;-89
2022/12/10 15:58:17;;;;;;;43.15;10.50;;;17.80;99.90;;;;;;4867248;29;20025;-91
2022/12/10 16:00:46;;;;;;;44.05;10.63;;;17.90;99.90;;;;;;4866987;29;20414;-89
2022/12/10 16:03:18;;;;;;;35.92;10.07;;;17.90;99.90;;;;;;4867140;29;20070;-88
2022/12/10 16:05:48;;;;;;;35.83;10.63;;;17.90;99.90;;;;;;4866855;29;20033;-89
2022/12/10 16:08:34;;;;;;;34.67;10.55;;;17.90;99.90;;;;;;4866873;29;20119;-90
2022/12/10 16:11:10;;;;;;;30.52;9.50;;;17.90;99.90;;;;;;4882516;29;20049;-88
2022/12/10 16:13:40;;;;;;;36.42;10.68;;;18.00;99.90;;;;;;4866743;29;20509;-88
2022/12/10 16:16:09;;;;;;;49.70;10.27;;;18.00;99.90;;;;;;4867255;29;20037;-89
2022/12/10 16:18:36;;;;;;;34.75;9.73;;;18.00;99.90;;;;;;4882145;29;20033;-89
2022/12/10 16:21:04;;;;;;;36.95;10.32;;;18.00;99.90;;;;;;4866185;29;20570;-89
2022/12/10 16:23:32;;;;;;;29.00;8.43;;;18.00;99.90;;;;;;4866634;29;20037;-92
2022/12/10 16:25:59;;;;;;;40.97;8.55;;;18.00;99.90;;;;;;4866703;29;20088;-88
2022/12/10 16:28:26;;;;;;;35.75;7.50;;;18.00;99.90;;;;;;4867034;29;20033;-90
2022/12/10 16:30:54;;;;;;;36.42;8.75;;;18.00;99.90;;;;;;4882023;29;20040;-89
2022/12/10 16:33:23;;;;;;;46.03;8.75;;;17.90;99.90;;;;;;4867734;29;20100;-89
2022/12/10 16:35:54;;;;;;;46.45;8.70;;;17.90;99.90;;;;;;4886186;29;20041;-88
2022/12/10 16:38:20;;;;;;;40.03;7.25;;;17.80;99.90;;;;;;4882393;29;20559;-89
2022/12/10 16:40:48;;;;;;;36.83;7.03;;;17.80;99.90;;;;;;4863890;29;20149;-88
2022/12/10 16:43:18;;;;;;;43.55;10.80;;;17.70;99.90;;;;;;4881386;29;20041;-87
2022/12/10 16:45:45;;;;;;;52.22;9.90;;;17.70;99.90;;;;;;4849105;29;20030;-88
2022/12/10 16:48:11;;;;;;;43.58;13.80;;;17.70;99.90;;;;;;4880983;29;20088;-87
2022/12/10 16:50:38;;;;;;;43.63;8.98;;;17.70;99.90;;;;;;4867749;29;20033;-87
2022/12/10 16:53:17;;;;;;;47.25;9.57;;;17.70;99.90;;;;;;4847714;29;20397;-88
2022/12/10 16:55:43;;;;;;;53.05;9.20;;;17.70;99.90;;;;;;4863309;29;20495;-87
2022/12/10 16:58:14;;;;;;;70.18;10.27;;;17.70;99.90;;;;;;4878562;29;20488;-87
2022/12/10 17:00:48;;;;;;;53.47;8.93;;;17.70;99.90;;;;;;4862914;29;20045;-90
2022/12/10 17:03:22;;;;;;;60.70;8.57;;;17.60;99.90;;;;;;4879110;29;20049;-91
2022/12/10 17:06:02;;;;;;;55.13;10.93;;;17.60;99.90;;;;;;4863510;29;20062;-89
2022/12/10 17:08:29;;;;;;;61.33;10.68;;;17.70;99.90;;;;;;4862535;29;20041;-87
2022/12/10 17:13:44;;;;;;;54.92;11.73;;;17.60;99.90;;;;;;4847518;29;20107;-89
2022/12/10 17:16:14;;;;;;;50.42;10.80;;;17.60;99.90;;;;;;4862856;29;20042;-90
2022/12/10 17:18:40;;;;;;;66.22;12.48;;;17.60;99.90;;;;;;4848005;29;20073;-89
2022/12/10 17:21:10;;;;;;;75.63;11.20;;;17.60;99.90;;;;;;4849410;29;20398;-91
2022/12/10 17:23:36;;;;;;;55.45;10.23;;;17.60;99.90;;;;;;4847654;29;20505;-89
2022/12/10 17:26:03;;;;;;;68.57;9.85;;;17.60;99.90;;;;;;4847114;29;20037;-89
2022/12/10 17:28:30;;;;;;;64.47;11.60;;;17.60;99.90;;;;;;4847187;29;20036;-89
2022/12/10 17:30:57;;;;;;;66.38;9.98;;;17.60;99.90;;;;;;4846743;29;20033;-90
2022/12/10 17:33:24;;;;;;;67.88;11.30;;;17.60;99.90;;;;;;4877767;29;20037;-88
2022/12/10 17:35:52;;;;;;;66.80;11.40;;;17.50;99.90;;;;;;4862236;29;20033;-89
2022/12/10 17:38:23;;;;;;;69.53;12.00;;;17.50;99.90;;;;;;4846973;29;20057;-90
2022/12/10 17:40:51;;;;;;;65.30;12.88;;;17.50;99.90;;;;;;4878069;29;20071;-90
2022/12/10 17:43:20;;;;;;;61.95;12.60;;;17.50;99.90;;;;;;4850437;29;20443;-89
2022/12/10 17:45:47;;;;;;;69.78;11.73;;;17.40;99.90;;;;;;4880895;29;20033;-89
2022/12/10 17:48:16;;;;;;;66.30;12.60;;;17.40;99.90;;;;;;4880948;29;20028;-88
2022/12/10 17:50:44;;;;;;;83.75;15.38;;;17.40;99.90;;;;;;4865521;29;20493;-88
2022/12/10 17:53:15;;;;;;;74.00;13.73;;;17.40;99.90;;;;;;4865061;29;20036;-89
2022/12/10 17:55:55;;;;;;;80.07;16.00;;;17.40;99.90;;;;;;4865031;29;20040;-89
2022/12/10 17:58:22;;;;;;;82.18;12.57;;;17.40;99.90;;;;;;4865232;29;20044;-88
2022/12/10 18:00:51;;;;;;;54.95;10.20;;;17.30;99.90;;;;;;4849690;29;20124;-89
2022/12/10 18:03:18;;;;;;;39.50;11.63;;;17.20;99.90;;;;;;4864649;29;20036;-89
2022/12/10 18:05:45;;;;;;;26.30;8.73;;;16.90;99.90;;;;;;4880212;29;20029;-88
2022/12/10 18:08:17;;;;;;;21.17;7.28;;;16.60;99.90;;;;;;4864814;29;20394;-88
2022/12/10 18:10:44;;;;;;;20.02;6.68;;;16.30;99.90;;;;;;4849360;29;20056;-89
2022/12/10 18:13:10;;;;;;;18.38;5.43;;;16.20;99.90;;;;;;4880462;29;20037;-87
2022/12/10 18:15:37;;;;;;;21.00;5.60;;;16.10;99.90;;;;;;4864631;29;20426;-88
2022/12/10 18:18:04;;;;;;;23.55;5.40;;;15.90;99.90;;;;;;4879988;29;20037;-88
2022/12/10 18:20:34;;;;;;;14.00;4.32;;;15.80;99.90;;;;;;4864412;29;20029;-89
2022/12/10 18:23:02;;;;;;;17.63;4.70;;;15.70;99.90;;;;;;4864365;29;20029;-90
2022/12/10 18:25:29;;;;;;;18.42;4.95;;;15.70;99.90;;;;;;4849095;29;20494;-91
2022/12/10 18:28:00;;;;;;;22.42;5.15;;;15.60;99.90;;;;;;4864564;29;20072;-92
2022/12/10 18:30:28;;;;;;;20.25;4.55;;;15.50;99.90;;;;;;4849377;29;20036;-91
2022/12/10 18:32:54;;;;;;;22.05;4.43;;;15.50;99.90;;;;;;4864507;29;20028;-90
2022/12/10 18:35:21;;;;;;;19.98;4.68;;;15.50;99.90;;;;;;4879798;29;20033;-89
2022/12/10 18:37:48;;;;;;;15.60;4.22;;;15.40;99.90;;;;;;4864213;29;20123;-89
2022/12/10 18:40:23;;;;;;;13.10;4.18;;;15.40;99.90;;;;;;4860925;29;20054;-89
2022/12/10 18:42:50;;;;;;;21.13;4.22;;;15.30;99.90;;;;;;4876536;29;20543;-89
2022/12/10 18:45:16;;;;;;;19.27;4.45;;;15.30;99.90;;;;;;4876817;29;20495;-88
2022/12/10 18:47:43;;;;;;;21.77;4.57;;;15.30;99.90;;;;;;4861089;29;20071;-89
2022/12/10 18:50:23;;;;;;;15.15;4.25;;;15.20;99.90;;;;;;4876473;29;20025;-88
2022/12/10 18:52:50;;;;;;;34.15;12.68;;;15.20;99.90;;;;;;4876376;29;20177;-88
2022/12/10 18:55:17;;;;;;;73.13;33.88;;;15.10;99.90;;;;;;4860854;29;20032;-90
2022/12/10 18:57:44;;;;;;;195.45;96.10;;;15.10;99.90;;;;;;4845648;29;20090;-89
2022/12/10 19:00:13;;;;;;;211.77;108.05;;;15.10;99.90;;;;;;4845585;29;20029;-89
2022/12/10 19:02:40;;;;;;;67.22;37.45;;;15.00;99.90;;;;;;4860871;29;20033;-88
2022/12/10 19:05:06;;;;;;;23.52;13.18;;;15.00;99.90;;;;;;4845454;29;20034;-88
2022/12/10 19:07:33;;;;;;;21.77;9.25;;;15.00;99.90;;;;;;4849649;29;20116;-87
2022/12/10 19:09:59;;;;;;;34.70;10.32;;;15.00;99.90;;;;;;4866362;29;20038;-87
2022/12/10 19:12:26;;;;;;;22.23;6.72;;;15.00;99.90;;;;;;4851509;29;20060;-87
2022/12/10 19:14:52;;;;;;;24.38;5.40;;;15.00;99.90;;;;;;4882535;29;20041;-88
2022/12/10 19:17:18;;;;;;;26.38;7.10;;;15.10;99.90;;;;;;4882992;29;20127;-87
2022/12/10 19:19:45;;;;;;;19.38;7.38;;;15.10;99.90;;;;;;4881869;29;20041;-90
2022/12/10 19:22:14;;;;;;;22.23;5.93;;;15.20;99.90;;;;;;4851623;29;20041;-88
2022/12/10 19:24:43;;;;;;;33.10;7.32;;;15.20;99.90;;;;;;4883826;29;20026;-88
2022/12/10 19:27:12;;;;;;;21.38;6.75;;;15.20;99.90;;;;;;4868019;29;20437;-88
2022/12/10 19:29:40;;;;;;;24.27;5.07;;;15.20;99.90;;;;;;4877233;29;20022;-87
2022/12/10 19:32:07;;;;;;;18.48;5.55;;;15.30;99.90;;;;;;4866406;29;20041;-87
2022/12/10 19:34:37;;;;;;;16.77;4.30;;;15.30;99.90;;;;;;4865123;29;20041;-88
2022/12/10 19:37:04;;;;;;;23.58;5.57;;;15.30;99.90;;;;;;4880467;29;20073;-86
2022/12/10 19:39:31;;;;;;;30.73;13.93;;;15.30;99.90;;;;;;4883205;29;20068;-87
2022/12/10 19:41:58;;;;;;;16.70;5.60;;;15.20;99.90;;;;;;4867648;29;20073;-87
2022/12/10 19:44:24;;;;;;;17.63;7.82;;;15.20;99.90;;;;;;4867597;29;20025;-85
2022/12/10 19:46:51;;;;;;;34.97;11.60;;;15.20;99.90;;;;;;4882973;29;20487;-85
2022/12/10 19:49:18;;;;;;;100.00;35.35;;;15.20;99.90;;;;;;4867373;29;20029;-86
2022/12/10 19:51:45;;;;;;;51.10;16.98;;;15.20;99.90;;;;;;4882580;29;20049;-85
2022/12/10 19:54:11;;;;;;;48.45;21.50;;;15.20;99.90;;;;;;4867217;29;20496;-85
2022/12/10 19:56:38;;;;;;;82.70;46.50;;;15.20;99.90;;;;;;4882787;29;20033;-87
2022/12/10 19:59:18;;;;;;;38.17;20.58;;;15.20;99.90;;;;;;4882515;29;20033;-86
2022/12/10 20:01:45;;;;;;;19.90;8.18;;;15.20;99.90;;;;;;4882453;29;20128;-87
2022/12/10 20:04:14;;;;;;;36.55;15.60;;;15.20;99.90;;;;;;4867363;29;20033;-87
2022/12/10 20:06:43;;;;;;;26.95;12.95;;;15.20;99.90;;;;;;4867178;29;20089;-86
2022/12/10 20:09:18;;;;;;;22.65;7.82;;;15.10;99.90;;;;;;4867091;29;20033;-85
2022/12/10 20:11:45;;;;;;;25.77;8.50;;;15.10;99.90;;;;;;4867282;29;20124;-85
2022/12/10 20:14:11;;;;;;;32.65;10.93;;;15.10;99.90;;;;;;4866951;29;20121;-84
2022/12/10 20:16:38;;;;;;;33.78;11.70;;;15.10;99.90;;;;;;4882896;29;20430;-86
2022/12/10 20:19:04;;;;;;;41.60;14.07;;;15.10;99.90;;;;;;4866922;29;20116;-85
2022/12/10 20:21:30;;;;;;;29.70;9.90;;;15.20;99.90;;;;;;4866979;29;20045;-85
2022/12/10 20:23:57;;;;;;;21.98;9.15;;;15.20;99.90;;;;;;4866739;29;20029;-86
2022/12/10 20:26:30;;;;;;;23.80;10.60;;;15.10;99.90;;;;;;4866630;29;20487;-86
2022/12/10 20:28:56;;;;;;;20.55;9.98;;;15.10;99.90;;;;;;4866977;29;20085;-87
2022/12/10 20:31:23;;;;;;;15.25;6.68;;;15.10;99.90;;;;;;4866948;29;20033;-88
2022/12/10 20:33:53;;;;;;;18.42;5.45;;;15.10;99.90;;;;;;4882570;29;20036;-87
2022/12/10 20:36:26;;;;;;;18.00;5.32;;;15.10;99.90;;;;;;4866879;29;20033;-88
2022/12/10 20:38:53;;;;;;;27.30;6.50;;;15.10;99.90;;;;;;4867196;29;20029;-88
2022/12/10 20:41:20;;;;;;;29.52;10.40;;;15.10;99.90;;;;;;4869748;29;20113;-87
2022/12/10 20:43:47;;;;;;;24.73;9.70;;;15.10;99.90;;;;;;4869705;29;20051;-86
2022/12/10 20:46:23;;;;;;;22.58;7.10;;;15.10;99.90;;;;;;4885434;29;20123;-87
2022/12/10 20:48:50;;;;;;;23.33;5.22;;;15.10;99.90;;;;;;4885194;29;20029;-87
2022/12/10 20:51:18;;;;;;;21.30;6.85;;;15.10;99.90;;;;;;4869928;29;20025;-86
2022/12/10 20:53:48;;;;;;;20.85;7.20;;;15.10;99.90;;;;;;4885099;29;20033;-86
2022/12/10 20:56:19;;;;;;;27.00;8.80;;;15.10;99.90;;;;;;4869625;29;20592;-85
2022/12/10 20:58:46;;;;;;;28.67;8.15;;;15.10;99.90;;;;;;4885136;29;20474;-86
2022/12/10 21:01:23;;;;;;;18.92;5.82;;;15.10;99.90;;;;;;4870488;29;20036;-87
2022/12/10 21:03:49;;;;;;;29.60;6.28;;;15.20;99.90;;;;;;4885808;29;20482;-89
2022/12/10 21:06:24;;;;;;;18.55;5.28;;;15.20;99.90;;;;;;4870365;29;20071;-90
2022/12/10 21:08:51;;;;;;;22.88;5.05;;;15.20;99.90;;;;;;4870772;29;20088;-89
2022/12/10 21:11:18;;;;;;;24.80;6.68;;;15.30;99.90;;;;;;4885743;29;20123;-90
2022/12/10 21:13:45;;;;;;;27.85;7.50;;;15.20;99.90;;;;;;4870061;29;20032;-89
2022/12/10 21:16:18;;;;;;;22.85;6.35;;;15.30;99.90;;;;;;4885804;29;20121;-89
2022/12/10 21:18:47;;;;;;;28.35;6.45;;;15.30;99.90;;;;;;4885879;29;20116;-89
2022/12/10 21:21:14;;;;;;;35.88;6.32;;;15.30;99.90;;;;;;4885505;29;20048;-88
2022/12/10 21:23:42;;;;;;;33.95;7.78;;;15.40;99.90;;;;;;4869816;29;20060;-89
2022/12/10 21:26:09;;;;;;;30.27;6.40;;;15.40;99.90;;;;;;4885594;29;20081;-90